PWSweather.com
Personal Weather Stations
Station Observations
RAINMAN1
Jacksonville, FL 32224

Jacksonville, FL 32224

Lat: 30.28041649, Lon: -81.46911621

Elevation: 26

Station Type: Tycon TP1080WC

Latest ConditionsUpdated 1:45:02 PM EDT Wednesday, Apr 1, 2015
Currently Today's Max Today's Min Today's Average
Temperature 85.1°F29.5°C 85.1°F29.5°C 65.8°F18.8°C 71.4°F21.9°C
Dew Point 67.7°F19.8°C 71.0°F21.7°C 64.4°F18.0°C 67.7°F19.8°C
Winds 9.0 mph WNW14.5 kmh WNW 12.9 mph SW20.8 kmh SW - 7.5 mph 12.1 kmh
Wind Gusts 14.5 mph23.3 kmh 22.1 mph35.6 kmh - -
Humidity 56% 99% 56% 89%
Pressure 29.72 in1006.4 mb 29.76 in1007.8 mb 29.69 in1005.4 mb -
Hour Temp Dew Point Humidity Winds Wind Gusts Pressure Precip Precip Rate Daily Precip Total
01:45 PM 85.1°F29.5°C 67.7°F19.8°C 56% 9.0 mph WNW14.5 kmh WNW 14.5 mph23.3 kmh 29.72 in1006.4 mb 0.00 in0.0 mm 0.00 in0.0 mm 0.00 in0.0 mm
01:40 PM 84.0°F28.9°C 68.2°F20.1°C 59% 8.5 mph NW13.7 kmh NW 13.0 mph20.9 kmh 29.72 in1006.4 mb 0.00 in0.0 mm 0.00 in0.0 mm 0.00 in0.0 mm
01:35 PM 83.3°F28.5°C 68.0°F20.0°C 60% 9.4 mph W15.1 kmh W 13.0 mph20.9 kmh 29.72 in1006.4 mb 0.00 in0.0 mm 0.00 in0.0 mm 0.00 in0.0 mm
01:30 PM 82.4°F28.0°C 68.1°F20.1°C 62% 11.4 mph W18.3 kmh W 19.0 mph30.6 kmh 29.72 in1006.4 mb 0.00 in0.0 mm 0.00 in0.0 mm 0.00 in0.0 mm
01:25 PM 82.6°F28.1°C 67.8°F19.9°C 61% 12.2 mph WNW19.6 kmh WNW 19.0 mph30.6 kmh 29.72 in1006.4 mb 0.00 in0.0 mm 0.00 in0.0 mm 0.00 in0.0 mm
01:20 PM 82.4°F28.0°C 67.7°F19.8°C 61% 9.8 mph NW15.8 kmh NW 14.5 mph23.3 kmh 29.73 in1006.8 mb 0.00 in0.0 mm 0.00 in0.0 mm 0.00 in0.0 mm
01:15 PM 82.6°F28.1°C 68.8°F20.4°C 63% 7.9 mph WNW12.7 kmh WNW 9.8 mph15.8 kmh 29.73 in1006.8 mb 0.00 in0.0 mm 0.00 in0.0 mm 0.00 in0.0 mm
01:10 PM 81.9°F27.7°C 68.5°F20.3°C 64% 9.0 mph W14.5 kmh W 9.8 mph15.8 kmh 29.73 in1006.8 mb 0.00 in0.0 mm 0.00 in0.0 mm 0.00 in0.0 mm
01:05 PM 82.0°F27.8°C 67.8°F19.9°C 62% 11.4 mph W18.3 kmh W 16.8 mph27.0 kmh 29.73 in1006.8 mb 0.00 in0.0 mm 0.00 in0.0 mm 0.00 in0.0 mm
01:00 PM 82.2°F27.9°C 68.4°F20.2°C 63% 11.6 mph W18.7 kmh W 16.8 mph27.0 kmh 29.73 in1006.8 mb 0.00 in0.0 mm 0.00 in0.0 mm 0.00 in0.0 mm
12:55 PM 81.9°F27.7°C 69.9°F21.1°C 67% 10.5 mph WSW16.9 kmh WSW 15.2 mph24.5 kmh 29.73 in1006.8 mb 0.00 in0.0 mm 0.00 in0.0 mm 0.00 in0.0 mm
12:50 PM 81.3°F27.4°C 68.9°F20.5°C 66% 10.6 mph W17.1 kmh W 15.2 mph24.5 kmh 29.73 in1006.8 mb 0.00 in0.0 mm 0.00 in0.0 mm 0.00 in0.0 mm
12:45 PM 81.7°F27.6°C 68.8°F20.4°C 65% 11.0 mph W17.7 kmh W 17.4 mph28.0 kmh 29.73 in1006.8 mb 0.00 in0.0 mm 0.00 in0.0 mm 0.00 in0.0 mm
12:40 PM 81.7°F27.6°C 69.3°F20.7°C 66% 10.3 mph W16.6 kmh W 17.4 mph28.0 kmh 29.73 in1006.8 mb 0.00 in0.0 mm 0.00 in0.0 mm 0.00 in0.0 mm
12:35 PM 81.7°F27.6°C 68.8°F20.4°C 65% 9.6 mph NW15.4 kmh NW 13.0 mph20.9 kmh 29.74 in1007.1 mb 0.00 in0.0 mm 0.00 in0.0 mm 0.00 in0.0 mm
12:30 PM 81.1°F27.3°C 69.2°F20.7°C 67% 10.0 mph NW16.1 kmh NW 12.1 mph19.5 kmh 29.73 in1006.8 mb 0.00 in0.0 mm 0.00 in0.0 mm 0.00 in0.0 mm
12:25 PM 81.0°F27.2°C 68.6°F20.3°C 66% 8.4 mph WNW13.5 kmh WNW 12.1 mph19.5 kmh 29.74 in1007.1 mb 0.00 in0.0 mm 0.00 in0.0 mm 0.00 in0.0 mm
12:20 PM 82.0°F27.8°C 70.1°F21.2°C 67% 7.0 mph W11.3 kmh W 11.4 mph18.3 kmh 29.74 in1007.1 mb 0.00 in0.0 mm 0.00 in0.0 mm 0.00 in0.0 mm
12:15 PM 81.0°F27.2°C 69.9°F21.1°C 69% 6.6 mph WNW10.6 kmh WNW 11.4 mph18.3 kmh 29.74 in1007.1 mb 0.00 in0.0 mm 0.00 in0.0 mm 0.00 in0.0 mm
12:10 PM 80.2°F26.8°C 70.4°F21.3°C 72% 4.9 mph E7.9 kmh E 10.7 mph17.2 kmh 29.75 in1007.5 mb 0.00 in0.0 mm 0.00 in0.0 mm 0.00 in0.0 mm
12:05 PM 79.7°F26.5°C 70.7°F21.5°C 74% 5.5 mph NNW8.9 kmh NNW 10.7 mph17.2 kmh 29.75 in1007.5 mb 0.00 in0.0 mm 0.00 in0.0 mm 0.00 in0.0 mm
12:00 PM 79.5°F26.4°C 70.2°F21.2°C 73% 7.5 mph NW12.1 kmh NW 11.4 mph18.3 kmh 29.75 in1007.5 mb 0.00 in0.0 mm 0.00 in0.0 mm 0.00 in0.0 mm
11:55 AM 78.8°F26.0°C 69.9°F21.1°C 74% 8.6 mph NW13.8 kmh NW 13.0 mph20.9 kmh 29.75 in1007.5 mb 0.00 in0.0 mm 0.00 in0.0 mm 0.00 in0.0 mm
11:50 AM 78.1°F25.6°C 69.6°F20.9°C 75% 9.9 mph WNW15.9 kmh WNW 13.0 mph20.9 kmh 29.75 in1007.5 mb 0.00 in0.0 mm 0.00 in0.0 mm 0.00 in0.0 mm
11:45 AM 78.3°F25.7°C 69.7°F20.9°C 75% 8.0 mph W12.9 kmh W 13.0 mph20.9 kmh 29.76 in1007.8 mb 0.00 in0.0 mm 0.00 in0.0 mm 0.00 in0.0 mm
11:40 AM 77.7°F25.4°C 70.0°F21.1°C 77% 7.1 mph W11.4 kmh W 13.0 mph20.9 kmh 29.76 in1007.8 mb 0.00 in0.0 mm 0.00 in0.0 mm 0.00 in0.0 mm
11:35 AM 77.4°F25.2°C 69.2°F20.7°C 76% 7.7 mph WNW12.4 kmh WNW 13.0 mph20.9 kmh 29.76 in1007.8 mb 0.00 in0.0 mm 0.00 in0.0 mm 0.00 in0.0 mm
11:30 AM 77.4°F25.2°C 70.0°F21.1°C 78% 8.6 mph WNW13.8 kmh WNW 13.0 mph20.9 kmh 29.76 in1007.8 mb 0.00 in0.0 mm 0.00 in0.0 mm 0.00 in0.0 mm
11:25 AM 77.2°F25.1°C 69.8°F21.0°C 78% 9.4 mph NW15.1 kmh NW 13.0 mph20.9 kmh 29.76 in1007.8 mb 0.00 in0.0 mm 0.00 in0.0 mm 0.00 in0.0 mm
11:20 AM 76.8°F24.9°C 69.5°F20.8°C 78% 9.6 mph NW15.4 kmh NW 13.6 mph21.9 kmh 29.75 in1007.5 mb 0.00 in0.0 mm 0.00 in0.0 mm 0.00 in0.0 mm
11:15 AM 76.5°F24.7°C 69.1°F20.6°C 78% 10.8 mph WNW17.4 kmh WNW 13.6 mph21.9 kmh 29.75 in1007.5 mb 0.00 in0.0 mm 0.00 in0.0 mm 0.00 in0.0 mm
11:10 AM 76.8°F24.9°C 69.1°F20.6°C 77% 12.3 mph W19.8 kmh W 13.6 mph21.9 kmh 29.76 in1007.8 mb 0.00 in0.0 mm 0.00 in0.0 mm 0.00 in0.0 mm
11:05 AM 77.9°F25.5°C 69.4°F20.8°C 75% 12.4 mph W20.0 kmh W 18.3 mph29.5 kmh 29.75 in1007.5 mb 0.00 in0.0 mm 0.00 in0.0 mm 0.00 in0.0 mm
11:00 AM 78.1°F25.6°C 69.6°F20.9°C 75% 11.5 mph W18.5 kmh W 18.3 mph29.5 kmh 29.75 in1007.5 mb 0.00 in0.0 mm 0.00 in0.0 mm 0.00 in0.0 mm
10:55 AM 77.9°F25.5°C 69.8°F21.0°C 76% 9.7 mph W15.6 kmh W 15.2 mph24.5 kmh 29.75 in1007.5 mb 0.00 in0.0 mm 0.00 in0.0 mm 0.00 in0.0 mm
10:50 AM 78.1°F25.6°C 70.3°F21.3°C 77% 9.7 mph WSW15.6 kmh WSW 15.9 mph25.6 kmh 29.75 in1007.5 mb 0.00 in0.0 mm 0.00 in0.0 mm 0.00 in0.0 mm
10:45 AM 77.0°F25.0°C 70.4°F21.3°C 80% 10.9 mph WSW17.5 kmh WSW 15.9 mph25.6 kmh 29.76 in1007.8 mb 0.00 in0.0 mm 0.00 in0.0 mm 0.00 in0.0 mm
10:40 AM 77.4°F25.2°C 70.4°F21.3°C 79% 9.1 mph WNW14.6 kmh WNW 14.5 mph23.3 kmh 29.76 in1007.8 mb 0.00 in0.0 mm 0.00 in0.0 mm 0.00 in0.0 mm
10:35 AM 77.0°F25.0°C 70.8°F21.6°C 81% 9.9 mph W15.9 kmh W 15.9 mph25.6 kmh 29.76 in1007.8 mb 0.00 in0.0 mm 0.00 in0.0 mm 0.00 in0.0 mm
10:30 AM 76.6°F24.8°C 70.1°F21.2°C 80% 11.9 mph W19.2 kmh W 19.0 mph30.6 kmh 29.76 in1007.8 mb 0.00 in0.0 mm 0.00 in0.0 mm 0.00 in0.0 mm
10:25 AM 76.1°F24.5°C 69.9°F21.1°C 81% 12.9 mph WNW20.8 kmh WNW 22.1 mph35.6 kmh 29.76 in1007.8 mb 0.00 in0.0 mm 0.00 in0.0 mm 0.00 in0.0 mm
10:20 AM 76.1°F24.5°C 70.3°F21.3°C 82% 12.8 mph W20.6 kmh W 22.1 mph35.6 kmh 29.76 in1007.8 mb 0.00 in0.0 mm 0.00 in0.0 mm 0.00 in0.0 mm
10:15 AM 76.5°F24.7°C 70.2°F21.2°C 81% 10.6 mph W17.1 kmh W 15.2 mph24.5 kmh 29.75 in1007.5 mb 0.00 in0.0 mm 0.00 in0.0 mm 0.00 in0.0 mm
10:10 AM 76.6°F24.8°C 70.1°F21.2°C 80% 8.9 mph W14.3 kmh W 15.2 mph24.5 kmh 29.75 in1007.5 mb 0.00 in0.0 mm 0.00 in0.0 mm 0.00 in0.0 mm
10:05 AM 75.9°F24.4°C 70.4°F21.3°C 83% 8.7 mph W14.0 kmh W 11.4 mph18.3 kmh 29.76 in1007.8 mb 0.00 in0.0 mm 0.00 in0.0 mm 0.00 in0.0 mm
10:00 AM 76.1°F24.5°C 70.6°F21.4°C 83% 9.2 mph WNW14.8 kmh WNW 11.4 mph18.3 kmh 29.76 in1007.8 mb 0.00 in0.0 mm 0.00 in0.0 mm 0.00 in0.0 mm
09:55 AM 75.6°F24.2°C 70.8°F21.6°C 85% 11.1 mph WNW17.9 kmh WNW 18.3 mph29.5 kmh 29.76 in1007.8 mb 0.00 in0.0 mm 0.00 in0.0 mm 0.00 in0.0 mm
09:50 AM 74.7°F23.7°C 70.6°F21.4°C 87% 11.9 mph WNW19.2 kmh WNW 18.3 mph29.5 kmh 29.75 in1007.5 mb 0.00 in0.0 mm 0.00 in0.0 mm 0.00 in0.0 mm
09:45 AM 74.8°F23.8°C 70.4°F21.3°C 86% 9.7 mph WNW15.6 kmh WNW 18.3 mph29.5 kmh 29.76 in1007.8 mb 0.00 in0.0 mm 0.00 in0.0 mm 0.00 in0.0 mm
09:40 AM 74.7°F23.7°C 70.9°F21.6°C 88% 8.9 mph W14.3 kmh W 13.0 mph20.9 kmh 29.76 in1007.8 mb 0.00 in0.0 mm 0.00 in0.0 mm 0.00 in0.0 mm
09:35 AM 73.9°F23.3°C 70.5°F21.4°C 89% 10.5 mph WSW16.9 kmh WSW 15.2 mph24.5 kmh 29.75 in1007.5 mb 0.00 in0.0 mm 0.00 in0.0 mm 0.00 in0.0 mm
09:30 AM 73.2°F22.9°C 70.2°F21.2°C 90% 10.2 mph WSW16.4 kmh WSW 15.2 mph24.5 kmh 29.75 in1007.5 mb 0.00 in0.0 mm 0.00 in0.0 mm 0.00 in0.0 mm
09:25 AM 73.0°F22.8°C 70.6°F21.4°C 92% 9.6 mph WSW15.4 kmh WSW 16.8 mph27.0 kmh 29.75 in1007.5 mb 0.00 in0.0 mm 0.00 in0.0 mm 0.00 in0.0 mm
09:20 AM 72.7°F22.6°C 70.3°F21.3°C 92% 10.1 mph W16.3 kmh W 16.8 mph27.0 kmh 29.75 in1007.5 mb 0.00 in0.0 mm 0.00 in0.0 mm 0.00 in0.0 mm
09:15 AM 73.0°F22.8°C 70.6°F21.4°C 92% 9.9 mph W15.9 kmh W 11.4 mph18.3 kmh 29.75 in1007.5 mb 0.00 in0.0 mm 0.00 in0.0 mm 0.00 in0.0 mm
09:10 AM 73.0°F22.8°C 70.6°F21.4°C 92% 9.9 mph W15.9 kmh W 11.4 mph18.3 kmh 29.75 in1007.5 mb 0.00 in0.0 mm 0.00 in0.0 mm 0.00 in0.0 mm
09:05 AM 72.3°F22.4°C 70.5°F21.4°C 94% 10.1 mph W16.3 kmh W 13.6 mph21.9 kmh 29.75 in1007.5 mb 0.00 in0.0 mm 0.00 in0.0 mm 0.00 in0.0 mm
09:00 AM 72.5°F22.5°C 70.7°F21.5°C 94% 10.1 mph W16.3 kmh W 13.6 mph21.9 kmh 29.75 in1007.5 mb 0.00 in0.0 mm 0.00 in0.0 mm 0.00 in0.0 mm
08:55 AM 72.0°F22.2°C 70.8°F21.6°C 96% 9.3 mph W15.0 kmh W 13.0 mph20.9 kmh 29.75 in1007.5 mb 0.00 in0.0 mm 0.00 in0.0 mm 0.00 in0.0 mm
08:50 AM 72.0°F22.2°C 70.8°F21.6°C 96% 8.4 mph WSW13.5 kmh WSW 12.1 mph19.5 kmh 29.75 in1007.5 mb 0.00 in0.0 mm 0.00 in0.0 mm 0.00 in0.0 mm
08:45 AM 71.6°F22.0°C 71.0°F21.7°C 98% 8.9 mph W14.3 kmh W 12.1 mph19.5 kmh 29.75 in1007.5 mb 0.00 in0.0 mm 0.00 in0.0 mm 0.00 in0.0 mm
08:40 AM 70.7°F21.5°C 70.4°F21.3°C 99% 9.0 mph W14.5 kmh W 12.1 mph19.5 kmh 29.75 in1007.5 mb 0.00 in0.0 mm 0.00 in0.0 mm 0.00 in0.0 mm
08:35 AM 70.7°F21.5°C 70.4°F21.3°C 99% 8.3 mph W13.4 kmh W 12.1 mph19.5 kmh 29.75 in1007.5 mb 0.00 in0.0 mm 0.00 in0.0 mm 0.00 in0.0 mm
08:30 AM 70.2°F21.2°C 69.9°F21.1°C 99% 6.7 mph W10.8 kmh W 12.1 mph19.5 kmh 29.75 in1007.5 mb 0.00 in0.0 mm 0.00 in0.0 mm 0.00 in0.0 mm
08:25 AM 69.8°F21.0°C 69.5°F20.8°C 99% 6.0 mph WSW9.7 kmh WSW 10.7 mph17.2 kmh 29.75 in1007.5 mb 0.00 in0.0 mm 0.00 in0.0 mm 0.00 in0.0 mm
08:20 AM 68.9°F20.5°C 68.6°F20.3°C 99% 7.7 mph WSW12.4 kmh WSW 10.7 mph17.2 kmh 29.75 in1007.5 mb 0.00 in0.0 mm 0.00 in0.0 mm 0.00 in0.0 mm
08:15 AM 68.5°F20.3°C 68.3°F20.2°C 99% 7.5 mph W12.1 kmh W 10.7 mph17.2 kmh 29.75 in1007.5 mb 0.00 in0.0 mm 0.00 in0.0 mm 0.00 in0.0 mm
08:10 AM 68.4°F20.2°C 68.1°F20.1°C 99% 7.1 mph W11.4 kmh W 8.3 mph13.4 kmh 29.75 in1007.5 mb 0.00 in0.0 mm 0.00 in0.0 mm 0.00 in0.0 mm
08:05 AM 67.6°F19.8°C 67.4°F19.7°C 99% 6.2 mph WSW10.0 kmh WSW 7.6 mph12.2 kmh 29.75 in1007.5 mb 0.00 in0.0 mm 0.00 in0.0 mm 0.00 in0.0 mm
08:00 AM 67.6°F19.8°C 67.4°F19.7°C 99% 4.9 mph SW7.9 kmh SW 6.9 mph11.1 kmh 29.75 in1007.5 mb 0.00 in0.0 mm 0.00 in0.0 mm 0.00 in0.0 mm
07:55 AM 67.1°F19.5°C 66.8°F19.3°C 99% 5.0 mph SW8.0 kmh SW 6.9 mph11.1 kmh 29.75 in1007.5 mb 0.00 in0.0 mm 0.00 in0.0 mm 0.00 in0.0 mm
07:50 AM 67.1°F19.5°C 66.8°F19.3°C 99% 4.5 mph WSW7.2 kmh WSW 6.9 mph11.1 kmh 29.75 in1007.5 mb 0.00 in0.0 mm 0.00 in0.0 mm 0.00 in0.0 mm
07:45 AM 66.6°F19.2°C 66.3°F19.1°C 99% 4.2 mph WSW6.8 kmh WSW 6.9 mph11.1 kmh 29.74 in1007.1 mb 0.00 in0.0 mm 0.00 in0.0 mm 0.00 in0.0 mm
07:40 AM 66.4°F19.1°C 66.1°F18.9°C 99% 4.1 mph WSW6.6 kmh WSW 5.4 mph8.7 kmh 29.74 in1007.1 mb 0.00 in0.0 mm 0.00 in0.0 mm 0.00 in0.0 mm
07:35 AM 66.2°F19.0°C 65.9°F18.8°C 99% 3.6 mph W5.8 kmh W 5.4 mph8.7 kmh 29.74 in1007.1 mb 0.00 in0.0 mm 0.00 in0.0 mm 0.00 in0.0 mm
07:30 AM 66.0°F18.9°C 65.8°F18.8°C 99% 3.5 mph W5.6 kmh W 5.4 mph8.7 kmh 29.74 in1007.1 mb 0.00 in0.0 mm 0.00 in0.0 mm 0.00 in0.0 mm
07:25 AM 66.0°F18.9°C 65.8°F18.8°C 99% 3.5 mph WSW5.6 kmh WSW 5.4 mph8.7 kmh 29.73 in1006.8 mb 0.00 in0.0 mm 0.00 in0.0 mm 0.00 in0.0 mm
07:20 AM 65.8°F18.8°C 65.6°F18.7°C 99% 3.0 mph WSW4.8 kmh WSW 4.5 mph7.2 kmh 29.73 in1006.8 mb 0.00 in0.0 mm 0.00 in0.0 mm 0.00 in0.0 mm
07:15 AM 66.0°F18.9°C 65.8°F18.8°C 99% 3.0 mph WSW4.8 kmh WSW 4.5 mph7.2 kmh 29.73 in1006.8 mb 0.00 in0.0 mm 0.00 in0.0 mm 0.00 in0.0 mm
07:10 AM 66.0°F18.9°C 65.8°F18.8°C 99% 2.6 mph SW4.2 kmh SW 4.5 mph7.2 kmh 29.73 in1006.8 mb 0.00 in0.0 mm 0.00 in0.0 mm 0.00 in0.0 mm
07:05 AM 66.2°F19.0°C 65.9°F18.8°C 99% 2.5 mph SW4.0 kmh SW 3.1 mph5.0 kmh 29.72 in1006.4 mb 0.00 in0.0 mm 0.00 in0.0 mm 0.00 in0.0 mm
07:00 AM 66.2°F19.0°C 65.9°F18.8°C 99% 2.9 mph WSW4.7 kmh WSW 3.8 mph6.1 kmh 29.72 in1006.4 mb 0.00 in0.0 mm 0.00 in0.0 mm 0.00 in0.0 mm
06:55 AM 66.2°F19.0°C 65.9°F18.8°C 99% 3.2 mph WSW5.1 kmh WSW 5.4 mph8.7 kmh 29.72 in1006.4 mb 0.00 in0.0 mm 0.00 in0.0 mm 0.00 in0.0 mm
06:50 AM 66.4°F19.1°C 66.1°F18.9°C 99% 3.9 mph WSW6.3 kmh WSW 6.0 mph9.7 kmh 29.72 in1006.4 mb 0.00 in0.0 mm 0.00 in0.0 mm 0.00 in0.0 mm
06:45 AM 66.4°F19.1°C 66.1°F18.9°C 99% 4.2 mph WSW6.8 kmh WSW 6.9 mph11.1 kmh 29.72 in1006.4 mb 0.00 in0.0 mm 0.00 in0.0 mm 0.00 in0.0 mm
06:40 AM 66.6°F19.2°C 66.3°F19.1°C 99% 4.0 mph WSW6.4 kmh WSW 6.9 mph11.1 kmh 29.71 in1006.1 mb 0.00 in0.0 mm 0.00 in0.0 mm 0.00 in0.0 mm
06:35 AM 66.7°F19.3°C 66.5°F19.2°C 99% 4.1 mph WSW6.6 kmh WSW 6.0 mph9.7 kmh 29.71 in1006.1 mb 0.00 in0.0 mm 0.00 in0.0 mm 0.00 in0.0 mm
06:30 AM 66.7°F19.3°C 66.5°F19.2°C 99% 4.0 mph WSW6.4 kmh WSW 6.0 mph9.7 kmh 29.72 in1006.4 mb 0.00 in0.0 mm 0.00 in0.0 mm 0.00 in0.0 mm
06:25 AM 66.9°F19.4°C 66.7°F19.3°C 99% 4.2 mph W6.8 kmh W 7.6 mph12.2 kmh 29.71 in1006.1 mb 0.00 in0.0 mm 0.00 in0.0 mm 0.00 in0.0 mm
06:20 AM 67.1°F19.5°C 66.8°F19.3°C 99% 4.8 mph W7.7 kmh W 7.6 mph12.2 kmh 29.71 in1006.1 mb 0.00 in0.0 mm 0.00 in0.0 mm 0.00 in0.0 mm
06:15 AM 66.9°F19.4°C 66.7°F19.3°C 99% 4.5 mph SW7.2 kmh SW 6.0 mph9.7 kmh 29.71 in1006.1 mb 0.00 in0.0 mm 0.00 in0.0 mm 0.00 in0.0 mm
06:10 AM 67.1°F19.5°C 66.8°F19.3°C 99% 4.0 mph SSE6.4 kmh SSE 5.4 mph8.7 kmh 29.70 in1005.8 mb 0.00 in0.0 mm 0.00 in0.0 mm 0.00 in0.0 mm
06:05 AM 67.5°F19.7°C 67.2°F19.6°C 99% 5.0 mph SSW8.0 kmh SSW 6.9 mph11.1 kmh 29.70 in1005.8 mb 0.00 in0.0 mm 0.00 in0.0 mm 0.00 in0.0 mm
06:00 AM 67.6°F19.8°C 67.4°F19.7°C 99% 6.0 mph WSW9.7 kmh WSW 8.3 mph13.4 kmh 29.70 in1005.8 mb 0.00 in0.0 mm 0.00 in0.0 mm 0.00 in0.0 mm
05:55 AM 67.6°F19.8°C 67.4°F19.7°C 99% 5.6 mph WSW9.0 kmh WSW 9.2 mph14.8 kmh 29.70 in1005.8 mb 0.00 in0.0 mm 0.00 in0.0 mm 0.00 in0.0 mm
05:50 AM 67.8°F19.9°C 67.6°F19.8°C 99% 5.6 mph WSW9.0 kmh WSW 9.8 mph15.8 kmh 29.70 in1005.8 mb 0.00 in0.0 mm 0.00 in0.0 mm 0.00 in0.0 mm
05:45 AM 68.0°F20.0°C 67.7°F19.8°C 99% 5.4 mph WSW8.7 kmh WSW 9.8 mph15.8 kmh 29.70 in1005.8 mb 0.00 in0.0 mm 0.00 in0.0 mm 0.00 in0.0 mm
05:40 AM 67.8°F19.9°C 67.6°F19.8°C 99% 5.1 mph WSW8.2 kmh WSW 7.6 mph12.2 kmh 29.70 in1005.8 mb 0.00 in0.0 mm 0.00 in0.0 mm 0.00 in0.0 mm
05:35 AM 67.8°F19.9°C 67.6°F19.8°C 99% 5.1 mph W8.2 kmh W 7.6 mph12.2 kmh 29.70 in1005.8 mb 0.00 in0.0 mm 0.00 in0.0 mm 0.00 in0.0 mm
05:30 AM 67.6°F19.8°C 67.4°F19.7°C 99% 5.0 mph W8.0 kmh W 7.6 mph12.2 kmh 29.70 in1005.8 mb 0.00 in0.0 mm 0.00 in0.0 mm 0.00 in0.0 mm
05:25 AM 67.8°F19.9°C 67.6°F19.8°C 99% 5.2 mph W8.4 kmh W 8.3 mph13.4 kmh 29.70 in1005.8 mb 0.00 in0.0 mm 0.00 in0.0 mm 0.00 in0.0 mm
05:20 AM 67.8°F19.9°C 67.6°F19.8°C 99% 5.6 mph WNW9.0 kmh WNW 8.3 mph13.4 kmh 29.70 in1005.8 mb 0.00 in0.0 mm 0.00 in0.0 mm 0.00 in0.0 mm
05:15 AM 67.6°F19.8°C 67.4°F19.7°C 99% 6.9 mph WNW11.1 kmh WNW 10.7 mph17.2 kmh 29.70 in1005.8 mb 0.00 in0.0 mm 0.00 in0.0 mm 0.00 in0.0 mm
05:10 AM 67.6°F19.8°C 67.4°F19.7°C 99% 8.0 mph W12.9 kmh W 10.7 mph17.2 kmh 29.70 in1005.8 mb 0.00 in0.0 mm 0.00 in0.0 mm 0.00 in0.0 mm
05:05 AM 67.6°F19.8°C 67.4°F19.7°C 99% 6.2 mph W10.0 kmh W 7.6 mph12.2 kmh 29.70 in1005.8 mb 0.00 in0.0 mm 0.00 in0.0 mm 0.00 in0.0 mm
05:00 AM 67.5°F19.7°C 67.2°F19.6°C 99% 5.7 mph W9.2 kmh W 9.8 mph15.8 kmh 29.69 in1005.4 mb 0.00 in0.0 mm 0.00 in0.0 mm 0.00 in0.0 mm
04:55 AM 67.5°F19.7°C 67.2°F19.6°C 99% 7.0 mph W11.3 kmh W 9.8 mph15.8 kmh 29.69 in1005.4 mb 0.00 in0.0 mm 0.00 in0.0 mm 0.00 in0.0 mm
04:50 AM 67.5°F19.7°C 67.2°F19.6°C 99% 6.7 mph W10.8 kmh W 9.8 mph15.8 kmh 29.69 in1005.4 mb 0.00 in0.0 mm 0.00 in0.0 mm 0.00 in0.0 mm
04:45 AM 67.5°F19.7°C 67.2°F19.6°C 99% 6.2 mph W10.0 kmh W 7.6 mph12.2 kmh 29.69 in1005.4 mb 0.00 in0.0 mm 0.00 in0.0 mm 0.00 in0.0 mm
04:40 AM 67.5°F19.7°C 67.2°F19.6°C 99% 6.0 mph WNW9.7 kmh WNW 8.3 mph13.4 kmh 29.69 in1005.4 mb 0.00 in0.0 mm 0.00 in0.0 mm 0.00 in0.0 mm
04:35 AM 67.5°F19.7°C 67.2°F19.6°C 99% 6.5 mph WNW10.5 kmh WNW 9.8 mph15.8 kmh 29.69 in1005.4 mb 0.00 in0.0 mm 0.00 in0.0 mm 0.00 in0.0 mm
04:30 AM 67.5°F19.7°C 67.2°F19.6°C 99% 6.5 mph WNW10.5 kmh WNW 9.8 mph15.8 kmh 29.69 in1005.4 mb 0.00 in0.0 mm 0.00 in0.0 mm 0.00 in0.0 mm
04:25 AM 67.3°F19.6°C 67.0°F19.4°C 99% 6.4 mph W10.3 kmh W 9.2 mph14.8 kmh 29.69 in1005.4 mb 0.00 in0.0 mm 0.00 in0.0 mm 0.00 in0.0 mm
04:20 AM 67.3°F19.6°C 67.0°F19.4°C 99% 6.7 mph WSW10.8 kmh WSW 9.2 mph14.8 kmh 29.69 in1005.4 mb 0.00 in0.0 mm 0.00 in0.0 mm 0.00 in0.0 mm
04:15 AM 67.5°F19.7°C 67.2°F19.6°C 99% 6.0 mph W9.7 kmh W 9.2 mph14.8 kmh 29.69 in1005.4 mb 0.00 in0.0 mm 0.00 in0.0 mm 0.00 in0.0 mm
04:10 AM 67.1°F19.5°C 66.8°F19.3°C 99% 5.0 mph NW8.0 kmh NW 8.3 mph13.4 kmh 29.69 in1005.4 mb 0.00 in0.0 mm 0.00 in0.0 mm 0.00 in0.0 mm
04:05 AM 67.1°F19.5°C 66.8°F19.3°C 99% 5.7 mph WNW9.2 kmh WNW 9.8 mph15.8 kmh 29.70 in1005.8 mb 0.00 in0.0 mm 0.00 in0.0 mm 0.00 in0.0 mm
04:00 AM 67.1°F19.5°C 66.8°F19.3°C 99% 7.3 mph W11.7 kmh W 9.8 mph15.8 kmh 29.70 in1005.8 mb 0.00 in0.0 mm 0.00 in0.0 mm 0.00 in0.0 mm
03:55 AM 66.9°F19.4°C 66.7°F19.3°C 99% 6.6 mph WNW10.6 kmh WNW 9.8 mph15.8 kmh 29.70 in1005.8 mb 0.00 in0.0 mm 0.00 in0.0 mm 0.00 in0.0 mm
03:50 AM 66.7°F19.3°C 66.5°F19.2°C 99% 5.4 mph NW8.7 kmh NW 9.2 mph14.8 kmh 29.70 in1005.8 mb 0.00 in0.0 mm 0.00 in0.0 mm 0.00 in0.0 mm
03:45 AM 66.7°F19.3°C 66.5°F19.2°C 99% 5.0 mph W8.0 kmh W 9.2 mph14.8 kmh 29.70 in1005.8 mb 0.00 in0.0 mm 0.00 in0.0 mm 0.00 in0.0 mm
03:40 AM 66.6°F19.2°C 66.3°F19.1°C 99% 5.5 mph W8.9 kmh W 6.9 mph11.1 kmh 29.70 in1005.8 mb 0.00 in0.0 mm 0.00 in0.0 mm 0.00 in0.0 mm
03:35 AM 66.7°F19.3°C 66.5°F19.2°C 99% 5.4 mph W8.7 kmh W 6.9 mph11.1 kmh 29.70 in1005.8 mb 0.00 in0.0 mm 0.00 in0.0 mm 0.00 in0.0 mm
03:30 AM 66.6°F19.2°C 66.3°F19.1°C 99% 5.3 mph WNW8.5 kmh WNW 9.2 mph14.8 kmh 29.71 in1006.1 mb 0.00 in0.0 mm 0.00 in0.0 mm 0.00 in0.0 mm
03:25 AM 66.6°F19.2°C 66.3°F19.1°C 99% 6.2 mph W10.0 kmh W 9.2 mph14.8 kmh 29.71 in1006.1 mb 0.00 in0.0 mm 0.00 in0.0 mm 0.00 in0.0 mm
03:20 AM 66.6°F19.2°C 66.3°F19.1°C 99% 5.0 mph WSW8.0 kmh WSW 8.3 mph13.4 kmh 29.71 in1006.1 mb 0.00 in0.0 mm 0.00 in0.0 mm 0.00 in0.0 mm
03:15 AM 66.4°F19.1°C 66.1°F18.9°C 99% 4.1 mph WNW6.6 kmh WNW 6.0 mph9.7 kmh 29.71 in1006.1 mb 0.00 in0.0 mm 0.00 in0.0 mm 0.00 in0.0 mm
03:10 AM 66.6°F19.2°C 66.3°F19.1°C 99% 4.0 mph NNE6.4 kmh NNE 6.0 mph9.7 kmh 29.72 in1006.4 mb 0.00 in0.0 mm 0.00 in0.0 mm 0.00 in0.0 mm
03:05 AM 66.6°F19.2°C 66.3°F19.1°C 99% 4.3 mph N6.9 kmh N 7.6 mph12.2 kmh 29.72 in1006.4 mb 0.00 in0.0 mm 0.00 in0.0 mm 0.00 in0.0 mm
03:00 AM 66.6°F19.2°C 66.3°F19.1°C 99% 5.2 mph W8.4 kmh W 9.2 mph14.8 kmh 29.71 in1006.1 mb 0.00 in0.0 mm 0.00 in0.0 mm 0.00 in0.0 mm
02:55 AM 66.9°F19.4°C 66.7°F19.3°C 99% 5.9 mph WSW9.5 kmh WSW 9.2 mph14.8 kmh 29.71 in1006.1 mb 0.00 in0.0 mm 0.00 in0.0 mm 0.00 in0.0 mm
02:50 AM 66.7°F19.3°C 66.5°F19.2°C 99% 7.1 mph WSW11.4 kmh WSW 9.8 mph15.8 kmh 29.71 in1006.1 mb 0.00 in0.0 mm 0.00 in0.0 mm 0.00 in0.0 mm
02:45 AM 66.9°F19.4°C 66.4°F19.1°C 98% 6.4 mph WSW10.3 kmh WSW 9.8 mph15.8 kmh 29.71 in1006.1 mb 0.00 in0.0 mm 0.00 in0.0 mm 0.00 in0.0 mm
02:40 AM 67.1°F19.5°C 66.5°F19.2°C 98% 5.2 mph WSW8.4 kmh WSW 8.3 mph13.4 kmh 29.71 in1006.1 mb 0.00 in0.0 mm 0.00 in0.0 mm 0.00 in0.0 mm
02:35 AM 66.9°F19.4°C 66.1°F18.9°C 97% 5.9 mph WSW9.5 kmh WSW 8.3 mph13.4 kmh 29.71 in1006.1 mb 0.00 in0.0 mm 0.00 in0.0 mm 0.00 in0.0 mm
02:30 AM 67.3°F19.6°C 66.4°F19.1°C 97% 5.5 mph W8.9 kmh W 7.6 mph12.2 kmh 29.72 in1006.4 mb 0.00 in0.0 mm 0.00 in0.0 mm 0.00 in0.0 mm
02:25 AM 67.3°F19.6°C 66.1°F18.9°C 96% 5.4 mph W8.7 kmh W 11.4 mph18.3 kmh 29.72 in1006.4 mb 0.00 in0.0 mm 0.00 in0.0 mm 0.00 in0.0 mm
02:20 AM 67.5°F19.7°C 66.0°F18.9°C 95% 5.8 mph W9.3 kmh W 11.4 mph18.3 kmh 29.72 in1006.4 mb 0.00 in0.0 mm 0.00 in0.0 mm 0.00 in0.0 mm
02:15 AM 67.6°F19.8°C 66.2°F19.0°C 95% 6.1 mph W9.8 kmh W 9.2 mph14.8 kmh 29.72 in1006.4 mb 0.00 in0.0 mm 0.00 in0.0 mm 0.00 in0.0 mm
02:10 AM 67.8°F19.9°C 66.1°F18.9°C 94% 6.7 mph NW10.8 kmh NW 9.2 mph14.8 kmh 29.73 in1006.8 mb 0.00 in0.0 mm 0.00 in0.0 mm 0.00 in0.0 mm
02:05 AM 68.0°F20.0°C 65.9°F18.8°C 93% 8.5 mph WNW13.7 kmh WNW 13.0 mph20.9 kmh 29.72 in1006.4 mb 0.00 in0.0 mm 0.00 in0.0 mm 0.00 in0.0 mm
02:00 AM 68.0°F20.0°C 65.9°F18.8°C 93% 9.0 mph W14.5 kmh W 13.0 mph20.9 kmh 29.73 in1006.8 mb 0.00 in0.0 mm 0.00 in0.0 mm 0.00 in0.0 mm
01:55 AM 67.8°F19.9°C 65.8°F18.8°C 93% 7.6 mph W12.2 kmh W 12.1 mph19.5 kmh 29.73 in1006.8 mb 0.00 in0.0 mm 0.00 in0.0 mm 0.00 in0.0 mm
01:50 AM 67.8°F19.9°C 65.8°F18.8°C 93% 7.9 mph W12.7 kmh W 10.7 mph17.2 kmh 29.73 in1006.8 mb 0.00 in0.0 mm 0.00 in0.0 mm 0.00 in0.0 mm
01:45 AM 68.0°F20.0°C 65.6°F18.7°C 92% 8.2 mph W13.2 kmh W 10.7 mph17.2 kmh 29.73 in1006.8 mb 0.00 in0.0 mm 0.00 in0.0 mm 0.00 in0.0 mm
01:40 AM 68.2°F20.1°C 65.8°F18.8°C 92% 7.6 mph W12.2 kmh W 10.7 mph17.2 kmh 29.73 in1006.8 mb 0.00 in0.0 mm 0.00 in0.0 mm 0.00 in0.0 mm
01:35 AM 68.2°F20.1°C 65.5°F18.6°C 91% 7.4 mph W11.9 kmh W 10.7 mph17.2 kmh 29.73 in1006.8 mb 0.00 in0.0 mm 0.00 in0.0 mm 0.00 in0.0 mm
01:30 AM 68.2°F20.1°C 65.2°F18.4°C 90% 7.9 mph W12.7 kmh W 10.7 mph17.2 kmh 29.73 in1006.8 mb 0.00 in0.0 mm 0.00 in0.0 mm 0.00 in0.0 mm
01:25 AM 68.4°F20.2°C 65.3°F18.5°C 90% 8.3 mph W13.4 kmh W 10.7 mph17.2 kmh 29.73 in1006.8 mb 0.00 in0.0 mm 0.00 in0.0 mm 0.00 in0.0 mm
01:20 AM 68.5°F20.3°C 65.2°F18.4°C 89% 8.3 mph WNW13.4 kmh WNW 11.4 mph18.3 kmh 29.73 in1006.8 mb 0.00 in0.0 mm 0.00 in0.0 mm 0.00 in0.0 mm
01:15 AM 68.7°F20.4°C 65.4°F18.6°C 89% 7.7 mph W12.4 kmh W 11.4 mph18.3 kmh 29.74 in1007.1 mb 0.00 in0.0 mm 0.00 in0.0 mm 0.00 in0.0 mm
01:10 AM 68.5°F20.3°C 64.9°F18.3°C 88% 6.4 mph W10.3 kmh W 9.8 mph15.8 kmh 29.74 in1007.1 mb 0.00 in0.0 mm 0.00 in0.0 mm 0.00 in0.0 mm
01:05 AM 68.9°F20.5°C 64.9°F18.3°C 87% 7.0 mph W11.3 kmh W 11.4 mph18.3 kmh 29.74 in1007.1 mb 0.00 in0.0 mm 0.00 in0.0 mm 0.00 in0.0 mm
01:00 AM 68.9°F20.5°C 64.9°F18.3°C 87% 8.4 mph WNW13.5 kmh WNW 12.1 mph19.5 kmh 29.74 in1007.1 mb 0.00 in0.0 mm 0.00 in0.0 mm 0.00 in0.0 mm
12:55 AM 69.1°F20.6°C 64.7°F18.2°C 86% 8.9 mph W14.3 kmh W 13.0 mph20.9 kmh 29.74 in1007.1 mb 0.00 in0.0 mm 0.00 in0.0 mm 0.00 in0.0 mm
12:50 AM 69.3°F20.7°C 64.9°F18.3°C 86% 8.7 mph SW14.0 kmh SW 13.0 mph20.9 kmh 29.74 in1007.1 mb 0.00 in0.0 mm 0.00 in0.0 mm 0.00 in0.0 mm
12:45 AM 69.3°F20.7°C 64.6°F18.1°C 85% 8.9 mph W14.3 kmh W 13.0 mph20.9 kmh 29.74 in1007.1 mb 0.00 in0.0 mm 0.00 in0.0 mm 0.00 in0.0 mm
12:40 AM 69.4°F20.8°C 64.8°F18.2°C 85% 9.3 mph W15.0 kmh W 13.6 mph21.9 kmh 29.74 in1007.1 mb 0.00 in0.0 mm 0.00 in0.0 mm 0.00 in0.0 mm
12:35 AM 69.4°F20.8°C 64.8°F18.2°C 85% 9.1 mph WSW14.6 kmh WSW 13.6 mph21.9 kmh 29.73 in1006.8 mb 0.00 in0.0 mm 0.00 in0.0 mm 0.00 in0.0 mm
12:30 AM 69.6°F20.9°C 64.6°F18.1°C 84% 8.8 mph WSW14.2 kmh WSW 13.6 mph21.9 kmh 29.73 in1006.8 mb 0.00 in0.0 mm 0.00 in0.0 mm 0.00 in0.0 mm
12:25 AM 69.6°F20.9°C 64.6°F18.1°C 84% 8.6 mph W13.8 kmh W 12.1 mph19.5 kmh 29.73 in1006.8 mb 0.00 in0.0 mm 0.00 in0.0 mm 0.00 in0.0 mm
12:20 AM 69.8°F21.0°C 64.4°F18.0°C 83% 10.1 mph W16.3 kmh W 15.2 mph24.5 kmh 29.73 in1006.8 mb 0.00 in0.0 mm 0.00 in0.0 mm 0.00 in0.0 mm
12:15 AM 69.8°F21.0°C 64.4°F18.0°C 83% 11.1 mph WSW17.9 kmh WSW 15.2 mph24.5 kmh 29.73 in1006.8 mb 0.00 in0.0 mm 0.00 in0.0 mm 0.00 in0.0 mm
12:10 AM 70.2°F21.2°C 64.8°F18.2°C 83% 12.9 mph SW20.8 kmh SW 15.2 mph24.5 kmh 29.72 in1006.4 mb 0.00 in0.0 mm 0.00 in0.0 mm 0.00 in0.0 mm
12:05 AM 70.2°F21.2°C 64.4°F18.0°C 82% 12.1 mph SW19.5 kmh SW 15.2 mph24.5 kmh 29.73 in1006.8 mb 0.00 in0.0 mm 0.00 in0.0 mm 0.00 in0.0 mm
12:00 AM 70.2°F21.2°C 64.4°F18.0°C 82% 8.3 mph SW13.4 kmh SW 13.0 mph20.9 kmh 29.73 in1006.8 mb 0.00 in0.0 mm 0.00 in0.0 mm 0.00 in0.0 mm